createdAt,value
2018-03-06T00:00:02.196Z,983.77
2018-03-06T00:01:02.099Z,983.80
2018-03-06T00:02:02.187Z,983.82
2018-03-06T00:03:02.126Z,983.83
2018-03-06T00:04:02.106Z,983.83
2018-03-06T00:05:02.177Z,983.83
2018-03-06T00:06:02.179Z,983.83
2018-03-06T00:07:02.136Z,983.86
2018-03-06T00:08:02.154Z,983.81
2018-03-06T00:09:02.146Z,983.84
2018-03-06T00:10:02.158Z,983.80
2018-03-06T00:11:02.201Z,983.81
2018-03-06T00:12:02.239Z,983.81
2018-03-06T00:13:02.241Z,983.80
2018-03-06T00:14:02.207Z,983.80
2018-03-06T00:15:02.241Z,983.85
2018-03-06T00:16:02.142Z,983.82
2018-03-06T00:17:02.174Z,983.79
2018-03-06T00:18:02.133Z,983.77
2018-03-06T00:19:02.104Z,983.76
2018-03-06T00:20:02.176Z,983.79
2018-03-06T00:21:02.119Z,983.76
2018-03-06T00:22:02.180Z,983.78
2018-03-06T00:23:02.111Z,983.73
2018-03-06T00:24:02.178Z,983.73
2018-03-06T00:25:02.109Z,983.74
2018-03-06T00:26:02.180Z,983.74
2018-03-06T00:27:02.186Z,983.76
2018-03-06T00:28:02.197Z,983.74
2018-03-06T00:29:02.166Z,983.77
2018-03-06T00:30:02.326Z,983.75
2018-03-06T00:31:02.220Z,983.71
2018-03-06T00:32:02.216Z,983.72
2018-03-06T00:33:02.294Z,983.72
2018-03-06T00:34:02.227Z,983.71
2018-03-06T00:35:02.230Z,983.73
2018-03-06T00:36:02.223Z,983.72
2018-03-06T00:37:02.158Z,983.73
2018-03-06T00:38:02.128Z,983.69
2018-03-06T00:39:02.199Z,983.67
2018-03-06T00:40:02.128Z,983.69
2018-03-06T00:41:02.198Z,983.68
2018-03-06T00:42:02.125Z,983.76
2018-03-06T00:43:02.205Z,983.65
2018-03-06T00:44:02.258Z,983.68
2018-03-06T00:45:02.204Z,983.67
2018-03-06T00:46:02.204Z,983.62
2018-03-06T00:47:02.181Z,983.65
2018-03-06T00:48:02.074Z,983.64
2018-03-06T00:49:02.186Z,983.60
2018-03-06T00:50:02.182Z,983.58
2018-03-06T00:51:02.067Z,983.60
2018-03-06T00:52:02.194Z,983.54
2018-03-06T00:53:02.145Z,983.54
2018-03-06T00:54:02.144Z,983.51
2018-03-06T00:55:02.192Z,983.51
2018-03-06T00:56:02.144Z,983.54
2018-03-06T00:57:02.243Z,983.51
2018-03-06T00:58:02.141Z,983.46
2018-03-06T00:59:02.169Z,983.47
2018-03-06T01:00:02.212Z,983.46
2018-03-06T01:01:02.235Z,983.42
2018-03-06T01:02:02.126Z,983.40
2018-03-06T01:03:02.148Z,983.40
2018-03-06T01:04:02.140Z,983.38
2018-03-06T01:05:02.235Z,983.40
2018-03-06T01:06:02.214Z,983.36
2018-03-06T01:07:02.143Z,983.31
2018-03-06T01:08:02.217Z,983.33
2018-03-06T01:09:02.146Z,983.31
2018-03-06T01:10:02.217Z,983.27
2018-03-06T01:11:02.152Z,983.28
2018-03-06T01:12:02.143Z,983.27
2018-03-06T01:13:02.221Z,983.26
2018-03-06T01:14:02.145Z,983.27
2018-03-06T01:15:02.221Z,983.25
2018-03-06T01:16:02.225Z,983.28
2018-03-06T01:17:02.214Z,983.28
2018-03-06T01:18:02.211Z,983.23
2018-03-06T01:19:02.162Z,983.27
2018-03-06T01:20:02.233Z,983.21
2018-03-06T01:21:02.134Z,983.21
2018-03-06T01:22:02.141Z,983.23
2018-03-06T01:23:02.138Z,983.21
2018-03-06T01:24:02.213Z,983.23
2018-03-06T01:25:02.140Z,983.23
2018-03-06T01:26:02.215Z,983.23
2018-03-06T01:27:02.217Z,983.22
2018-03-06T01:28:02.219Z,983.20
2018-03-06T01:29:02.112Z,983.19
2018-03-06T01:30:02.216Z,983.20
2018-03-06T01:31:02.141Z,983.20
2018-03-06T01:32:02.194Z,983.14
2018-03-06T01:33:02.143Z,983.16
2018-03-06T01:34:02.190Z,983.10
2018-03-06T01:35:02.147Z,983.12
2018-03-06T01:36:02.221Z,983.12
2018-03-06T01:37:02.164Z,983.07
2018-03-06T01:38:02.199Z,983.09
2018-03-06T01:39:02.285Z,983.05
2018-03-06T01:40:02.258Z,983.03
2018-03-06T01:41:02.240Z,982.98
2018-03-06T01:42:02.195Z,983.02
2018-03-06T01:43:02.230Z,982.98
2018-03-06T01:44:02.179Z,982.94
2018-03-06T01:45:02.254Z,982.97
2018-03-06T01:46:02.264Z,982.98
2018-03-06T01:47:02.166Z,982.97
2018-03-06T01:48:02.220Z,982.97
2018-03-06T01:49:02.169Z,982.95
2018-03-06T01:50:02.167Z,982.97
2018-03-06T01:51:02.168Z,982.95
2018-03-06T01:52:02.240Z,982.93
2018-03-06T01:53:02.251Z,982.91
2018-03-06T01:54:02.246Z,982.91
2018-03-06T01:55:02.172Z,982.90
2018-03-06T01:56:02.242Z,982.87
2018-03-06T01:57:02.211Z,982.88
2018-03-06T01:58:02.142Z,982.90
2018-03-06T01:59:02.278Z,982.88
2018-03-06T02:00:02.280Z,982.91
2018-03-06T02:01:02.281Z,982.86
2018-03-06T02:02:02.213Z,982.89
2018-03-06T02:03:02.252Z,982.90
2018-03-06T02:04:02.270Z,982.87
2018-03-06T02:05:02.205Z,982.86
2018-03-06T02:06:02.247Z,982.90
2018-03-06T02:07:02.178Z,982.86
2018-03-06T02:08:02.177Z,982.89
2018-03-06T02:09:02.254Z,982.87
2018-03-06T02:10:02.179Z,982.83
2018-03-06T02:11:02.251Z,982.80
2018-03-06T02:12:02.184Z,982.83
2018-03-06T02:13:02.255Z,982.79
2018-03-06T02:14:02.183Z,982.78
2018-03-06T02:15:02.181Z,982.82
2018-03-06T02:16:02.193Z,982.77
2018-03-06T02:17:02.241Z,982.81
2018-03-06T02:18:02.126Z,982.79
2018-03-06T02:19:02.190Z,982.80
2018-03-06T02:20:02.193Z,982.80
2018-03-06T02:21:02.237Z,982.79
2018-03-06T02:22:02.240Z,982.83
2018-03-06T02:23:02.246Z,982.79
2018-03-06T02:24:02.121Z,982.76
2018-03-06T02:25:02.125Z,982.80
2018-03-06T02:26:02.156Z,982.77
2018-03-06T02:27:02.284Z,982.77
2018-03-06T02:28:02.232Z,982.73
2018-03-06T02:29:02.223Z,982.69
2018-03-06T02:30:02.239Z,982.73
2018-03-06T02:31:02.165Z,982.71
2018-03-06T02:32:02.160Z,982.72
2018-03-06T02:33:02.232Z,982.76
2018-03-06T02:34:02.232Z,982.67
2018-03-06T02:35:02.173Z,982.68
2018-03-06T02:36:02.292Z,982.68
2018-03-06T02:37:02.205Z,982.73
2018-03-06T02:38:02.270Z,982.62
2018-03-06T02:39:02.285Z,982.63
2018-03-06T02:40:02.271Z,982.61
2018-03-06T02:41:02.310Z,982.63
2018-03-06T02:42:02.297Z,982.60
2018-03-06T02:43:02.189Z,982.64
2018-03-06T02:44:02.174Z,982.64
2018-03-06T02:45:02.346Z,982.63
2018-03-06T02:46:02.305Z,982.60
2018-03-06T02:47:02.308Z,982.57
2018-03-06T02:48:02.230Z,982.59
2018-03-06T02:49:02.252Z,982.61
2018-03-06T02:50:02.314Z,982.56
2018-03-06T02:51:02.246Z,982.59
2018-03-06T02:52:02.304Z,982.58
2018-03-06T02:53:02.272Z,982.62
2018-03-06T02:54:02.307Z,982.60
2018-03-06T02:55:02.279Z,982.60
2018-03-06T02:56:02.253Z,982.58
2018-03-06T02:57:02.278Z,982.64
2018-03-06T02:58:02.207Z,982.66
2018-03-06T02:59:02.283Z,982.68
2018-03-06T03:00:02.281Z,982.65
2018-03-06T03:01:02.280Z,982.65
2018-03-06T03:02:02.283Z,982.71
2018-03-06T03:03:02.211Z,982.63
2018-03-06T03:04:02.250Z,982.63
2018-03-06T03:05:02.171Z,982.61
2018-03-06T03:06:02.213Z,982.63
2018-03-06T03:07:02.262Z,982.59
2018-03-06T03:08:02.341Z,982.57
2018-03-06T03:09:02.304Z,982.62
2018-03-06T03:10:02.262Z,982.62
2018-03-06T03:11:02.294Z,982.63
2018-03-06T03:12:02.284Z,982.64
2018-03-06T03:13:02.282Z,982.66
2018-03-06T03:14:02.186Z,982.62
2018-03-06T03:15:02.342Z,982.55
2018-03-06T03:16:02.324Z,982.63
2018-03-06T03:17:02.272Z,982.57
2018-03-06T03:18:02.281Z,982.62
2018-03-06T03:19:02.207Z,982.62
2018-03-06T03:20:02.237Z,982.61
2018-03-06T03:21:02.210Z,982.62
2018-03-06T03:22:02.199Z,982.63
2018-03-06T03:23:02.284Z,982.61
2018-03-06T03:24:02.212Z,982.61
2018-03-06T03:25:02.211Z,982.61
2018-03-06T03:26:02.210Z,982.58
2018-03-06T03:27:02.253Z,982.60
2018-03-06T03:28:02.200Z,982.61
2018-03-06T03:29:02.323Z,982.62
2018-03-06T03:30:02.328Z,982.61
2018-03-06T03:31:02.219Z,982.60
2018-03-06T03:32:02.214Z,982.61
2018-03-06T03:33:02.252Z,982.56
2018-03-06T03:34:02.307Z,982.55
2018-03-06T03:35:02.269Z,982.53
2018-03-06T03:36:02.326Z,982.53
2018-03-06T03:37:02.305Z,982.51
2018-03-06T03:38:02.309Z,982.49
2018-03-06T03:39:02.234Z,982.49
2018-03-06T03:40:02.299Z,982.43
2018-03-06T03:41:02.234Z,982.47
2018-03-06T03:42:02.248Z,982.43
2018-03-06T03:43:02.319Z,982.39
2018-03-06T03:44:02.190Z,982.45
2018-03-06T03:45:02.241Z,982.48
2018-03-06T03:46:02.311Z,982.44
2018-03-06T03:47:02.331Z,982.43
2018-03-06T03:48:02.344Z,982.41
2018-03-06T03:49:02.319Z,982.47
2018-03-06T03:50:02.305Z,982.36
2018-03-06T03:51:02.228Z,982.41
2018-03-06T03:52:02.247Z,982.34
2018-03-06T03:53:02.274Z,982.38
2018-03-06T03:54:02.318Z,982.43
2018-03-06T03:55:02.287Z,982.40
2018-03-06T03:56:02.246Z,982.39
2018-03-06T03:57:02.186Z,982.35
2018-03-06T03:58:02.304Z,982.41
2018-03-06T03:59:02.252Z,982.40
2018-03-06T04:00:02.210Z,982.44
2018-03-06T04:01:02.184Z,982.40
2018-03-06T04:02:02.291Z,982.43
2018-03-06T04:03:02.254Z,982.43
2018-03-06T04:04:02.275Z,982.43
2018-03-06T04:05:02.298Z,982.44
2018-03-06T04:06:02.194Z,982.43
2018-03-06T04:07:02.325Z,982.44
2018-03-06T04:08:02.251Z,982.41
2018-03-06T04:09:02.252Z,982.45
2018-03-06T04:10:02.249Z,982.42
2018-03-06T04:11:02.327Z,982.44
2018-03-06T04:12:02.247Z,982.41
2018-03-06T04:13:02.350Z,982.47
2018-03-06T04:14:02.326Z,982.40
2018-03-06T04:15:02.254Z,982.41
2018-03-06T04:16:02.224Z,982.41
2018-03-06T04:17:02.229Z,982.40
2018-03-06T04:18:02.267Z,982.36
2018-03-06T04:19:02.287Z,982.37
2018-03-06T04:20:02.346Z,982.34
2018-03-06T04:21:02.349Z,982.33
2018-03-06T04:22:02.289Z,982.28
2018-03-06T04:23:02.325Z,982.31
2018-03-06T04:24:02.245Z,982.33
2018-03-06T04:25:02.325Z,982.35
2018-03-06T04:26:02.348Z,982.37
2018-03-06T04:27:02.309Z,982.32
2018-03-06T04:28:02.360Z,982.35
2018-03-06T04:29:02.390Z,982.34
2018-03-06T04:30:02.249Z,982.34
2018-03-06T04:31:02.361Z,982.30
2018-03-06T04:32:02.293Z,982.30
2018-03-06T04:33:02.237Z,982.30
2018-03-06T04:34:02.258Z,982.30
2018-03-06T04:35:02.273Z,982.29
2018-03-06T04:36:02.365Z,982.27
2018-03-06T04:37:02.375Z,982.25
2018-03-06T04:38:02.310Z,982.22
2018-03-06T04:39:02.300Z,982.16
2018-03-06T04:40:02.258Z,982.20
2018-03-06T04:41:02.258Z,982.17
2018-03-06T04:42:02.342Z,982.16
2018-03-06T04:43:02.240Z,982.16
2018-03-06T04:44:02.346Z,982.14
2018-03-06T04:45:02.264Z,982.16
2018-03-06T04:46:02.247Z,982.14
2018-03-06T04:47:02.278Z,982.16
2018-03-06T04:48:02.394Z,982.19
2018-03-06T04:49:02.284Z,982.16
2018-03-06T04:50:02.379Z,982.11
2018-03-06T04:51:02.375Z,982.09
2018-03-06T04:52:02.349Z,982.07
2018-03-06T04:53:02.316Z,982.08
2018-03-06T04:54:02.445Z,982.08
2018-03-06T04:55:02.382Z,982.08
2018-03-06T04:56:02.374Z,982.08
2018-03-06T04:57:02.374Z,982.11
2018-03-06T04:58:02.254Z,982.08
2018-03-06T04:59:02.379Z,982.06
2018-03-06T05:00:02.385Z,982.09
2018-03-06T05:01:02.358Z,982.11
2018-03-06T05:02:02.293Z,982.11
2018-03-06T05:03:02.412Z,982.11
2018-03-06T05:04:02.374Z,982.12
2018-03-06T05:05:02.258Z,982.09
2018-03-06T05:06:02.392Z,982.10
2018-03-06T05:07:02.345Z,982.14
2018-03-06T05:08:02.348Z,982.13
2018-03-06T05:09:02.273Z,982.12
2018-03-06T05:10:02.262Z,982.10
2018-03-06T05:11:02.325Z,982.11
2018-03-06T05:12:02.273Z,982.10
2018-03-06T05:13:02.279Z,982.07
2018-03-06T05:14:02.347Z,982.07
2018-03-06T05:15:02.355Z,982.04
2018-03-06T05:16:02.277Z,982.06
2018-03-06T05:17:02.275Z,982.05
2018-03-06T05:18:02.279Z,982.04
2018-03-06T05:19:02.355Z,982.01
2018-03-06T05:20:02.358Z,982.02
2018-03-06T05:21:02.356Z,981.98
2018-03-06T05:22:02.279Z,981.96
2018-03-06T05:23:02.269Z,981.98
2018-03-06T05:24:02.357Z,981.98
2018-03-06T05:25:02.356Z,982.03
2018-03-06T05:26:02.360Z,982.02
2018-03-06T05:27:02.403Z,982.00
2018-03-06T05:28:02.363Z,982.02
2018-03-06T05:29:02.393Z,982.03
2018-03-06T05:30:02.305Z,982.03
2018-03-06T05:31:02.336Z,982.08
2018-03-06T05:32:02.385Z,982.04
2018-03-06T05:33:02.392Z,982.03
2018-03-06T05:34:02.336Z,982.03
2018-03-06T05:35:02.291Z,982.02
2018-03-06T05:36:02.408Z,982.05
2018-03-06T05:37:02.371Z,982.05
2018-03-06T05:38:02.336Z,982.07
2018-03-06T05:39:02.402Z,982.02
2018-03-06T05:40:02.334Z,982.00
2018-03-06T05:41:02.292Z,982.03
2018-03-06T05:42:02.369Z,982.02
2018-03-06T05:43:02.365Z,981.99
2018-03-06T05:44:02.374Z,981.99
2018-03-06T05:45:02.372Z,981.96
2018-03-06T05:46:02.338Z,981.95
2018-03-06T05:47:02.315Z,981.95
2018-03-06T05:48:02.343Z,981.95
2018-03-06T05:49:02.418Z,981.96
2018-03-06T05:50:02.410Z,981.95
2018-03-06T05:51:02.354Z,981.91
2018-03-06T05:52:02.443Z,981.91
2018-03-06T05:53:02.385Z,981.92
2018-03-06T05:54:02.326Z,981.89
2018-03-06T05:55:02.346Z,981.89
2018-03-06T05:56:02.379Z,981.89
2018-03-06T05:57:02.302Z,981.88
2018-03-06T05:58:02.317Z,981.87
2018-03-06T05:59:02.392Z,981.89
2018-03-06T06:00:02.393Z,981.93
2018-03-06T06:01:02.317Z,981.88
2018-03-06T06:02:02.391Z,981.88
2018-03-06T06:03:02.320Z,981.85
2018-03-06T06:04:02.392Z,981.84
2018-03-06T06:05:02.394Z,981.89
2018-03-06T06:06:02.320Z,981.93
2018-03-06T06:07:02.321Z,981.92
2018-03-06T06:08:02.360Z,981.93
2018-03-06T06:09:02.311Z,981.99
2018-03-06T06:10:02.327Z,981.93
2018-03-06T06:11:02.394Z,981.99
2018-03-06T06:12:02.351Z,981.94
2018-03-06T06:13:02.296Z,982.00
2018-03-06T06:14:02.388Z,981.96
2018-03-06T06:15:02.417Z,981.95
2018-03-06T06:16:02.364Z,981.99
2018-03-06T06:17:02.414Z,981.99
2018-03-06T06:18:02.415Z,981.99
2018-03-06T06:19:02.398Z,981.99
2018-03-06T06:20:02.424Z,982.04
2018-03-06T06:21:02.330Z,982.01
2018-03-06T06:22:02.401Z,982.02
2018-03-06T06:23:02.352Z,981.99
2018-03-06T06:24:02.474Z,982.03
2018-03-06T06:25:02.334Z,982.03
2018-03-06T06:26:02.335Z,981.96
2018-03-06T06:27:02.402Z,982.01
2018-03-06T06:28:02.338Z,981.98
2018-03-06T06:29:02.333Z,982.03
2018-03-06T06:30:02.407Z,982.03
2018-03-06T06:31:02.336Z,982.02
2018-03-06T06:32:02.406Z,982.02
2018-03-06T06:33:02.411Z,982.02
2018-03-06T06:34:02.336Z,982.04
2018-03-06T06:35:02.412Z,982.09
2018-03-06T06:36:02.335Z,982.07
2018-03-06T06:37:02.416Z,982.06
2018-03-06T06:38:02.427Z,982.09
2018-03-06T06:39:02.330Z,982.05
2018-03-06T06:40:02.441Z,981.96
2018-03-06T06:41:02.347Z,982.01
2018-03-06T06:42:02.408Z,982.03
2018-03-06T06:43:02.391Z,982.01
2018-03-06T06:44:02.407Z,982.00
2018-03-06T06:45:02.407Z,981.97
2018-03-06T06:46:02.441Z,982.00
2018-03-06T06:47:02.537Z,981.97
2018-03-06T06:48:02.344Z,982.02
2018-03-06T06:49:02.351Z,981.99
2018-03-06T06:50:02.446Z,982.02
2018-03-06T06:51:02.348Z,982.02
2018-03-06T06:52:02.428Z,982.04
2018-03-06T06:53:02.361Z,982.06
2018-03-06T06:54:02.344Z,982.05
2018-03-06T06:55:02.433Z,982.01
2018-03-06T06:56:02.348Z,982.05
2018-03-06T06:57:02.349Z,982.05
2018-03-06T06:58:02.348Z,982.02
2018-03-06T06:59:02.429Z,982.00
2018-03-06T07:00:02.355Z,982.01
2018-03-06T07:01:02.315Z,982.02
2018-03-06T07:02:02.354Z,982.03
2018-03-06T07:03:02.427Z,981.99
2018-03-06T07:04:02.353Z,982.02
2018-03-06T07:05:02.358Z,982.00
2018-03-06T07:06:02.426Z,981.95
2018-03-06T07:07:02.433Z,981.97
2018-03-06T07:08:02.347Z,981.93
2018-03-06T07:09:02.367Z,981.94
2018-03-06T07:10:02.430Z,981.94
2018-03-06T07:11:02.400Z,981.92
2018-03-06T07:12:02.353Z,981.96
2018-03-06T07:13:02.350Z,981.98
2018-03-06T07:14:02.400Z,981.94
2018-03-06T07:15:02.392Z,982.00
2018-03-06T07:16:02.453Z,981.95
2018-03-06T07:17:02.457Z,981.99
2018-03-06T07:18:02.367Z,981.97
2018-03-06T07:19:02.439Z,981.97
2018-03-06T07:20:02.368Z,982.02
2018-03-06T07:21:02.449Z,981.98
2018-03-06T07:22:02.366Z,981.97
2018-03-06T07:23:02.438Z,982.00
2018-03-06T07:24:02.373Z,981.99
2018-03-06T07:25:02.446Z,981.99
2018-03-06T07:26:02.375Z,982.03
2018-03-06T07:27:02.440Z,982.01
2018-03-06T07:28:02.373Z,982.03
2018-03-06T07:29:02.457Z,982.03
2018-03-06T07:30:02.478Z,982.05
2018-03-06T07:31:02.421Z,982.07
2018-03-06T07:32:02.383Z,982.05
2018-03-06T07:33:02.405Z,982.05
2018-03-06T07:34:02.479Z,982.09
2018-03-06T07:35:02.424Z,982.10
2018-03-06T07:36:02.420Z,982.09
2018-03-06T07:37:02.409Z,982.09
2018-03-06T07:38:02.474Z,982.11
2018-03-06T07:39:02.427Z,982.08
2018-03-06T07:40:02.381Z,982.08
2018-03-06T07:41:02.459Z,982.08
2018-03-06T07:42:02.413Z,982.05
2018-03-06T07:43:02.478Z,982.11
2018-03-06T07:44:02.470Z,982.10
2018-03-06T07:45:02.485Z,982.12
2018-03-06T07:46:02.434Z,982.11
2018-03-06T07:47:02.368Z,982.06
2018-03-06T07:48:02.509Z,982.08
2018-03-06T07:49:02.476Z,982.05
2018-03-06T07:50:02.433Z,982.04
2018-03-06T07:51:02.389Z,982.10
2018-03-06T07:52:02.511Z,982.10
2018-03-06T07:53:02.476Z,982.07
2018-03-06T07:54:02.378Z,982.11
2018-03-06T07:55:02.494Z,982.10
2018-03-06T07:56:02.455Z,982.02
2018-03-06T07:57:02.426Z,981.99
2018-03-06T07:58:02.389Z,982.03
2018-03-06T07:59:02.465Z,982.05
2018-03-06T08:00:02.461Z,982.04
2018-03-06T08:01:02.401Z,982.06
2018-03-06T08:02:02.485Z,982.08
2018-03-06T08:03:02.388Z,982.08
2018-03-06T08:04:02.464Z,982.12
2018-03-06T08:05:02.390Z,982.10
2018-03-06T08:06:02.470Z,982.12
2018-03-06T08:07:02.395Z,982.12
2018-03-06T08:08:02.388Z,982.09
2018-03-06T08:09:02.366Z,982.10
2018-03-06T08:10:02.333Z,982.11
2018-03-06T08:11:02.460Z,982.11
2018-03-06T08:12:02.438Z,982.12
2018-03-06T08:13:02.456Z,982.09
2018-03-06T08:14:02.453Z,982.02
2018-03-06T08:15:02.390Z,982.05
2018-03-06T08:16:02.457Z,982.01
2018-03-06T08:17:02.356Z,982.00
2018-03-06T08:18:02.398Z,982.01
2018-03-06T08:19:02.399Z,981.99
2018-03-06T08:20:02.472Z,982.00
2018-03-06T08:21:02.474Z,981.99
2018-03-06T08:22:02.470Z,982.00
2018-03-06T08:23:02.473Z,981.95
2018-03-06T08:24:02.509Z,981.95
2018-03-06T08:25:02.479Z,981.95
2018-03-06T08:26:02.408Z,981.92
2018-03-06T08:27:02.405Z,981.96
2018-03-06T08:28:02.429Z,981.95
2018-03-06T08:29:02.441Z,981.91
2018-03-06T08:30:02.475Z,981.89
2018-03-06T08:31:02.440Z,981.91
2018-03-06T08:32:02.412Z,981.87
2018-03-06T08:33:02.451Z,981.87
2018-03-06T08:34:02.460Z,981.89
2018-03-06T08:35:02.477Z,981.89
2018-03-06T08:36:02.505Z,981.90
2018-03-06T08:37:02.506Z,981.85
2018-03-06T08:38:02.376Z,981.92
2018-03-06T08:39:02.487Z,981.89
2018-03-06T08:40:02.416Z,981.87
2018-03-06T08:41:02.470Z,981.84
2018-03-06T08:42:02.490Z,981.84
2018-03-06T08:43:02.416Z,981.80
2018-03-06T08:44:02.413Z,981.85
2018-03-06T08:45:02.419Z,981.84
2018-03-06T08:46:02.418Z,981.85
2018-03-06T08:47:02.421Z,981.83
2018-03-06T08:48:02.540Z,981.81
2018-03-06T08:49:02.393Z,981.79
2018-03-06T08:50:02.459Z,981.78
2018-03-06T08:51:02.409Z,981.78
2018-03-06T08:52:02.522Z,981.76
2018-03-06T08:53:02.490Z,981.75
2018-03-06T08:54:02.451Z,981.75
2018-03-06T08:55:02.408Z,981.78
2018-03-06T08:56:02.491Z,981.70
2018-03-06T08:57:02.459Z,981.72
2018-03-06T08:58:02.514Z,981.73
2018-03-06T08:59:02.516Z,981.72
2018-03-06T09:00:02.503Z,981.73
2018-03-06T09:01:02.394Z,981.64
2018-03-06T09:02:02.465Z,981.65
2018-03-06T09:03:02.517Z,981.67
2018-03-06T09:04:02.583Z,981.66
2018-03-06T09:05:02.415Z,981.64
2018-03-06T09:06:02.490Z,981.68
2018-03-06T09:07:02.501Z,981.67
2018-03-06T09:08:02.495Z,981.62
2018-03-06T09:09:02.498Z,981.61
2018-03-06T09:10:02.513Z,981.60
2018-03-06T09:11:02.460Z,981.59
2018-03-06T09:12:02.408Z,981.57
2018-03-06T09:13:02.431Z,981.60
2018-03-06T09:14:02.522Z,981.59
2018-03-06T09:15:02.405Z,981.57
2018-03-06T09:16:02.443Z,981.57
2018-03-06T09:17:02.428Z,981.55
2018-03-06T09:18:02.505Z,981.58
2018-03-06T09:19:02.492Z,981.60
2018-03-06T09:20:02.499Z,981.58
2018-03-06T09:21:02.406Z,981.58
2018-03-06T09:22:02.437Z,981.57
2018-03-06T09:23:02.434Z,981.59
2018-03-06T09:24:02.471Z,981.58
2018-03-06T09:25:02.438Z,981.57
2018-03-06T09:26:02.409Z,981.57
2018-03-06T09:27:02.429Z,981.53
2018-03-06T09:28:02.579Z,981.57
2018-03-06T09:29:02.544Z,981.59
2018-03-06T09:30:02.431Z,981.57
2018-03-06T09:31:02.506Z,981.57
2018-03-06T09:32:02.429Z,981.57
2018-03-06T09:33:02.516Z,981.57
2018-03-06T09:34:02.481Z,981.62
2018-03-06T09:35:02.547Z,981.58
2018-03-06T09:36:02.410Z,981.58
2018-03-06T09:37:02.453Z,981.60
2018-03-06T09:38:02.549Z,981.53
2018-03-06T09:39:02.483Z,981.59
2018-03-06T09:40:02.541Z,981.55
2018-03-06T09:41:02.542Z,981.51
2018-03-06T09:42:02.514Z,981.51
2018-03-06T09:43:02.533Z,981.50
2018-03-06T09:44:02.482Z,981.49
2018-03-06T09:45:02.482Z,981.50
2018-03-06T09:46:02.477Z,981.52
2018-03-06T09:47:02.628Z,981.50
2018-03-06T09:48:02.559Z,981.50
2018-03-06T09:49:02.481Z,981.47
2018-03-06T09:50:02.542Z,981.53
2018-03-06T09:51:02.498Z,981.49
2018-03-06T09:52:02.479Z,981.44
2018-03-06T09:53:02.420Z,981.43
2018-03-06T09:54:02.523Z,981.44
2018-03-06T09:55:02.487Z,981.43
2018-03-06T09:56:02.480Z,981.43
2018-03-06T09:57:02.429Z,981.38
2018-03-06T09:58:02.526Z,981.41
2018-03-06T09:59:02.456Z,981.35
2018-03-06T10:00:02.525Z,981.41
2018-03-06T10:01:02.584Z,981.35
2018-03-06T10:02:02.573Z,981.39
2018-03-06T10:03:02.606Z,981.38
2018-03-06T10:04:02.562Z,981.39
2018-03-06T10:05:02.503Z,981.36
2018-03-06T10:06:02.515Z,981.34
2018-03-06T10:07:02.456Z,981.36
2018-03-06T10:08:02.435Z,981.32
2018-03-06T10:09:02.572Z,981.35
2018-03-06T10:10:02.459Z,981.32
2018-03-06T10:11:02.473Z,981.33
2018-03-06T10:12:02.539Z,981.33
2018-03-06T10:13:02.640Z,981.30
2018-03-06T10:14:02.570Z,981.33
2018-03-06T10:15:02.463Z,981.32
2018-03-06T10:16:02.563Z,981.31
2018-03-06T10:17:02.539Z,981.30
2018-03-06T10:18:02.435Z,981.31
2018-03-06T10:19:02.418Z,981.35
2018-03-06T10:20:02.506Z,981.33
2018-03-06T10:21:02.470Z,981.35
2018-03-06T10:22:02.465Z,981.27
2018-03-06T10:23:02.536Z,981.35
2018-03-06T10:24:02.509Z,981.35
2018-03-06T10:25:02.465Z,981.34
2018-03-06T10:26:02.489Z,981.38
2018-03-06T10:27:02.436Z,981.40
2018-03-06T10:28:02.551Z,981.33
2018-03-06T10:29:02.450Z,981.36
2018-03-06T10:30:02.541Z,981.36
2018-03-06T10:31:02.503Z,981.33
2018-03-06T10:32:02.549Z,981.35
2018-03-06T10:33:02.558Z,981.33
2018-03-06T10:34:02.575Z,981.34
2018-03-06T10:35:02.573Z,981.30
2018-03-06T10:36:02.558Z,981.32
2018-03-06T10:37:02.583Z,981.32
2018-03-06T10:38:02.553Z,981.29
2018-03-06T10:39:02.557Z,981.32
2018-03-06T10:40:02.559Z,981.32
2018-03-06T10:41:02.505Z,981.28
2018-03-06T10:42:02.488Z,981.25
2018-03-06T10:43:02.578Z,981.24
2018-03-06T10:44:02.553Z,981.27
2018-03-06T10:45:02.565Z,981.24
2018-03-06T10:46:02.592Z,981.22
2018-03-06T10:47:02.526Z,981.23
2018-03-06T10:48:02.605Z,981.23
2018-03-06T10:49:02.636Z,981.19
2018-03-06T10:50:02.560Z,981.20
2018-03-06T10:51:02.487Z,981.20
2018-03-06T10:52:02.530Z,981.19
2018-03-06T10:53:02.565Z,981.22
2018-03-06T10:54:02.563Z,981.17
2018-03-06T10:55:02.537Z,981.17
2018-03-06T10:56:02.556Z,981.22
2018-03-06T10:57:02.591Z,981.20
2018-03-06T10:58:02.498Z,981.15
2018-03-06T10:59:02.577Z,981.14
2018-03-06T11:00:02.575Z,981.11
2018-03-06T11:01:02.497Z,981.08
2018-03-06T11:02:02.575Z,981.08
2018-03-06T11:03:02.463Z,981.06
2018-03-06T11:04:02.575Z,981.05
2018-03-06T11:05:02.579Z,981.04
2018-03-06T11:06:02.582Z,980.99
2018-03-06T11:07:02.502Z,981.01
2018-03-06T11:08:02.611Z,981.01
2018-03-06T11:09:02.530Z,981.01
2018-03-06T11:10:02.594Z,981.04
2018-03-06T11:11:02.567Z,981.03
2018-03-06T11:12:02.591Z,981.00
2018-03-06T11:13:02.598Z,981.01
2018-03-06T11:14:02.532Z,981.00
2018-03-06T11:15:02.484Z,980.98
2018-03-06T11:16:02.544Z,981.00
2018-03-06T11:17:02.633Z,980.92
2018-03-06T11:18:02.577Z,980.94
2018-03-06T11:19:02.508Z,980.90
2018-03-06T11:20:02.581Z,980.90
2018-03-06T11:21:02.512Z,980.85
2018-03-06T11:22:02.579Z,980.82
2018-03-06T11:23:02.577Z,980.83
2018-03-06T11:24:02.511Z,980.84
2018-03-06T11:25:02.509Z,980.87
2018-03-06T11:26:02.580Z,980.80
2018-03-06T11:27:02.510Z,980.83
2018-03-06T11:28:02.481Z,980.81
2018-03-06T11:29:02.609Z,980.79
2018-03-06T11:30:02.637Z,980.81
2018-03-06T11:31:02.608Z,980.79
2018-03-06T11:32:02.545Z,980.80
2018-03-06T11:33:02.521Z,980.78
2018-03-06T11:34:02.580Z,980.74
2018-03-06T11:35:02.591Z,980.82
2018-03-06T11:36:02.665Z,980.77
2018-03-06T11:37:02.586Z,980.76
2018-03-06T11:38:02.557Z,980.77
2018-03-06T11:39:02.586Z,980.75
2018-03-06T11:40:02.510Z,980.76
2018-03-06T11:41:02.558Z,980.75
2018-03-06T11:42:02.493Z,980.72
2018-03-06T11:43:02.628Z,980.73
2018-03-06T11:44:02.548Z,980.72
2018-03-06T11:45:02.569Z,980.75
2018-03-06T11:46:02.626Z,980.71
2018-03-06T11:47:02.648Z,980.70
2018-03-06T11:48:02.595Z,980.69
2018-03-06T11:49:02.616Z,980.68
2018-03-06T11:50:02.527Z,980.65
2018-03-06T11:51:02.604Z,980.68
2018-03-06T11:52:02.528Z,980.66
2018-03-06T11:53:02.533Z,980.65
2018-03-06T11:54:02.599Z,980.62
2018-03-06T11:55:02.608Z,980.62
2018-03-06T11:56:02.537Z,980.61
2018-03-06T11:57:02.600Z,980.60
2018-03-06T11:58:02.622Z,980.59
2018-03-06T11:59:02.607Z,980.61
2018-03-06T12:00:02.548Z,980.60
2018-03-06T12:01:02.622Z,980.58
2018-03-06T12:02:02.545Z,980.57
2018-03-06T12:03:02.569Z,980.57
2018-03-06T12:04:02.520Z,980.57
2018-03-06T12:05:02.637Z,980.54
2018-03-06T12:06:02.510Z,980.56
2018-03-06T12:07:02.508Z,980.58
2018-03-06T12:08:02.566Z,980.52
2018-03-06T12:09:02.538Z,980.53
2018-03-06T12:10:02.643Z,980.49
2018-03-06T12:11:02.541Z,980.50
2018-03-06T12:12:02.540Z,980.48
2018-03-06T12:13:02.542Z,980.47
2018-03-06T12:14:02.612Z,980.45
2018-03-06T12:15:02.539Z,980.45
2018-03-06T12:16:02.612Z,980.44
2018-03-06T12:17:02.598Z,980.43
2018-03-06T12:18:02.542Z,980.40
2018-03-06T12:19:02.546Z,980.41
2018-03-06T12:20:02.585Z,980.38
2018-03-06T12:21:02.617Z,980.38
2018-03-06T12:22:02.602Z,980.39
2018-03-06T12:23:02.546Z,980.37
2018-03-06T12:24:02.620Z,980.36
2018-03-06T12:25:02.627Z,980.35
2018-03-06T12:26:02.546Z,980.30
2018-03-06T12:27:02.620Z,980.33
2018-03-06T12:28:02.648Z,980.34